createdAt,value
2018-05-24T00:01:38.661Z,18.23
2018-05-24T00:04:04.919Z,21.73
2018-05-24T00:06:31.199Z,28.40
2018-05-24T00:08:57.431Z,14.97
2018-05-24T00:11:23.714Z,15.43
2018-05-24T00:13:49.946Z,14.03
2018-05-24T00:16:16.194Z,15.87
2018-05-24T00:18:42.427Z,15.50
2018-05-24T00:21:08.667Z,15.30
2018-05-24T00:23:34.934Z,15.77
2018-05-24T00:26:01.176Z,16.60
2018-05-24T00:28:27.436Z,16.17
2018-05-24T00:30:53.665Z,15.30
2018-05-24T00:33:19.910Z,15.07
2018-05-24T00:35:46.151Z,15.17
2018-05-24T00:38:12.442Z,17.33
2018-05-24T00:40:38.676Z,17.73
2018-05-24T00:43:04.924Z,17.30
2018-05-24T00:45:31.194Z,15.50
2018-05-24T00:47:57.427Z,15.97
2018-05-24T00:50:23.679Z,16.70
2018-05-24T00:52:49.906Z,16.90
2018-05-24T01:08:42.981Z,13.10
2018-05-24T01:11:09.250Z,14.80
2018-05-24T01:13:35.504Z,14.43
2018-05-24T01:16:01.745Z,14.80
2018-05-24T01:18:28.026Z,11.13
2018-05-24T01:20:54.302Z,13.40
2018-05-24T01:23:20.567Z,13.63
2018-05-24T01:25:46.821Z,14.47
2018-05-24T01:28:13.063Z,13.97
2018-05-24T01:30:39.281Z,13.70
2018-05-24T01:33:05.542Z,12.17
2018-05-24T01:35:31.846Z,11.90
2018-05-24T01:37:58.154Z,14.03
2018-05-24T01:40:24.407Z,11.57
2018-05-24T01:42:50.650Z,10.90
2018-05-24T01:45:16.934Z,11.83
2018-05-24T01:47:43.281Z,10.97
2018-05-24T01:50:09.463Z,11.17
2018-05-24T01:52:35.725Z,11.10
2018-05-24T01:55:02.002Z,10.63
2018-05-24T01:57:28.334Z,11.57
2018-05-24T01:59:54.602Z,11.37
2018-05-24T02:02:20.822Z,11.00
2018-05-24T02:04:47.083Z,9.70
2018-05-24T02:07:13.302Z,9.60
2018-05-24T02:09:39.546Z,9.53
2018-05-24T02:12:05.802Z,8.50
2018-05-24T02:14:32.058Z,9.13
2018-05-24T02:16:58.289Z,8.43
2018-05-24T02:19:24.586Z,9.30
2018-05-24T02:21:50.869Z,8.93
2018-05-24T02:24:17.211Z,8.33
2018-05-24T02:26:43.470Z,8.37
2018-05-24T02:29:09.875Z,8.43
2018-05-24T02:31:36.059Z,7.87
2018-05-24T02:34:02.356Z,6.77
2018-05-24T02:36:28.598Z,7.47
2018-05-24T02:38:54.933Z,6.37
2018-05-24T02:41:21.224Z,6.17
2018-05-24T02:43:47.458Z,6.53
2018-05-24T02:46:13.696Z,6.87
2018-05-24T02:48:39.959Z,6.50
2018-05-24T02:51:06.223Z,6.20
2018-05-24T02:53:32.531Z,6.30
2018-05-24T02:55:58.762Z,7.20
2018-05-24T02:58:25.011Z,7.60
2018-05-24T03:00:51.263Z,6.50
2018-05-24T03:03:17.538Z,5.93
2018-05-24T03:05:43.802Z,6.37
2018-05-24T03:08:10.034Z,7.47
2018-05-24T03:10:36.310Z,6.63
2018-05-24T03:13:02.611Z,7.50
2018-05-24T03:15:28.854Z,6.90
2018-05-24T03:17:55.150Z,6.43
2018-05-24T03:20:21.439Z,6.77
2018-05-24T03:22:47.720Z,7.03
2018-05-24T03:25:14.077Z,7.43
2018-05-24T03:27:40.371Z,8.07
2018-05-24T03:30:06.615Z,6.80
2018-05-24T03:32:32.858Z,7.03
2018-05-24T03:34:59.090Z,8.13
2018-05-24T03:37:25.342Z,6.80
2018-05-24T03:39:51.596Z,8.00
2018-05-24T03:42:17.875Z,7.93
2018-05-24T03:44:44.118Z,7.87
2018-05-24T03:47:10.439Z,8.00
2018-05-24T03:49:36.675Z,7.60
2018-05-24T03:52:02.976Z,7.47
2018-05-24T03:54:29.226Z,7.80
2018-05-24T03:56:55.502Z,8.03
2018-05-24T04:12:57.931Z,10.27
2018-05-24T04:15:24.179Z,10.33
2018-05-24T04:17:50.425Z,9.43
2018-05-24T04:20:16.685Z,9.77
2018-05-24T04:22:44.206Z,9.93
2018-05-24T04:25:11.130Z,9.70
2018-05-24T04:27:37.423Z,12.83
2018-05-24T04:30:03.733Z,13.20
2018-05-24T04:32:29.982Z,9.73
2018-05-24T04:34:56.297Z,9.87
2018-05-24T04:37:22.522Z,9.97
2018-05-24T04:39:48.802Z,9.77
2018-05-24T04:42:15.078Z,10.30
2018-05-24T04:44:41.362Z,10.13
2018-05-24T04:47:07.639Z,10.57
2018-05-24T04:49:33.867Z,10.20
2018-05-24T04:52:00.113Z,9.33
2018-05-24T04:54:26.418Z,10.03
2018-05-24T04:56:52.663Z,10.57
2018-05-24T04:59:18.887Z,9.90
2018-05-24T05:01:45.209Z,10.83
2018-05-24T05:04:11.441Z,10.07
2018-05-24T05:06:37.691Z,9.53
2018-05-24T05:09:04.789Z,10.10
2018-05-24T05:11:31.790Z,9.50
2018-05-24T05:13:58.066Z,10.00
2018-05-24T05:16:24.322Z,10.03
2018-05-24T05:18:50.569Z,9.70
2018-05-24T05:21:16.835Z,10.03
2018-05-24T05:23:43.122Z,9.50
2018-05-24T05:26:09.430Z,10.10
2018-05-24T05:28:35.681Z,10.13
2018-05-24T05:31:02.032Z,10.53
2018-05-24T05:33:28.262Z,10.57
2018-05-24T05:35:54.528Z,10.03
2018-05-24T05:38:20.838Z,9.93
2018-05-24T05:40:47.022Z,10.27
2018-05-24T05:43:13.262Z,10.20
2018-05-24T05:45:39.522Z,9.93
2018-05-24T05:48:05.777Z,9.30
2018-05-24T05:50:32.014Z,10.13
2018-05-24T05:52:58.270Z,9.63
2018-05-24T05:55:24.503Z,9.93
2018-05-24T05:57:50.798Z,9.90
2018-05-24T06:00:17.041Z,10.70
2018-05-24T06:02:43.295Z,9.63
2018-05-24T06:05:09.544Z,10.10
2018-05-24T06:07:35.854Z,10.97
2018-05-24T06:10:02.108Z,11.03
2018-05-24T06:12:28.333Z,11.07
2018-05-24T06:14:54.708Z,10.40
2018-05-24T06:17:20.986Z,10.17
2018-05-24T06:19:47.268Z,10.50
2018-05-24T06:22:13.499Z,10.43
2018-05-24T06:24:39.759Z,10.63
2018-05-24T06:27:05.990Z,10.33
2018-05-24T06:29:32.251Z,10.23
2018-05-24T06:31:58.513Z,10.57
2018-05-24T06:34:24.776Z,11.03
2018-05-24T06:36:51.018Z,11.33
2018-05-24T06:39:17.271Z,10.53
2018-05-24T06:41:43.531Z,10.50
2018-05-24T06:44:09.759Z,10.00
2018-05-24T06:46:36.103Z,12.80
2018-05-24T06:49:02.307Z,10.47
2018-05-24T06:51:28.583Z,10.73
2018-05-24T06:53:54.854Z,10.40
2018-05-24T06:56:21.107Z,10.97
2018-05-24T06:58:47.347Z,9.87
2018-05-24T07:01:13.684Z,9.90
2018-05-24T07:03:39.955Z,10.23
2018-05-24T07:06:06.242Z,9.60
2018-05-24T07:08:32.577Z,9.50
2018-05-24T07:10:58.846Z,10.20
2018-05-24T07:13:25.166Z,9.07
2018-05-24T07:15:51.409Z,9.60
2018-05-24T07:18:17.669Z,9.60
2018-05-24T07:20:43.918Z,9.67
2018-05-24T07:23:10.170Z,10.27
2018-05-24T07:25:36.470Z,10.03
2018-05-24T07:28:02.735Z,9.83
2018-05-24T07:30:29.032Z,9.23
2018-05-24T07:32:55.270Z,9.03
2018-05-24T07:35:21.615Z,9.37
2018-05-24T07:37:47.910Z,8.87
2018-05-24T07:40:14.235Z,9.00
2018-05-24T07:42:40.482Z,9.43
2018-05-24T07:45:06.792Z,9.07
2018-05-24T07:47:33.051Z,9.87
2018-05-24T07:50:06.234Z,9.93
2018-05-24T07:52:32.474Z,12.13
2018-05-24T07:54:58.727Z,9.43
2018-05-24T07:57:25.011Z,9.50
2018-05-24T07:59:51.317Z,8.70
2018-05-24T08:02:17.587Z,9.33
2018-05-24T08:04:43.887Z,9.10
2018-05-24T08:07:10.114Z,9.50
2018-05-24T08:09:36.384Z,8.87
2018-05-24T08:12:02.695Z,9.33
2018-05-24T08:14:28.979Z,10.13
2018-05-24T08:16:55.241Z,9.13
2018-05-24T08:19:21.583Z,9.07
2018-05-24T08:21:47.850Z,9.07
2018-05-24T08:24:14.131Z,8.70
2018-05-24T08:26:40.366Z,8.27
2018-05-24T08:29:06.662Z,8.23
2018-05-24T08:31:32.899Z,10.13
2018-05-24T08:33:59.142Z,8.33
2018-05-24T08:36:25.474Z,9.27
2018-05-24T08:38:51.785Z,8.77
2018-05-24T08:41:18.038Z,9.20
2018-05-24T08:43:44.274Z,9.17
2018-05-24T08:46:10.558Z,8.87
2018-05-24T08:48:36.821Z,8.93
2018-05-24T08:51:03.082Z,8.57
2018-05-24T08:53:29.355Z,8.70
2018-05-24T08:55:55.594Z,8.43
2018-05-24T08:58:21.875Z,9.67
2018-05-24T09:00:48.127Z,8.57
2018-05-24T09:03:14.398Z,9.90
2018-05-24T09:05:40.665Z,9.50
2018-05-24T09:08:06.959Z,8.47
2018-05-24T09:10:33.214Z,8.57
2018-05-24T09:12:59.476Z,9.03
2018-05-24T09:15:25.707Z,8.80
2018-05-24T09:17:51.972Z,8.97
2018-05-24T09:20:18.282Z,8.57
2018-05-24T09:22:44.482Z,8.57
2018-05-24T09:25:10.759Z,9.27
2018-05-24T09:27:37.018Z,8.33
2018-05-24T09:30:03.311Z,8.90
2018-05-24T09:32:29.584Z,8.73
2018-05-24T09:34:55.834Z,9.20
2018-05-24T09:37:22.066Z,9.23
2018-05-24T09:39:48.343Z,9.07
2018-05-24T09:42:14.649Z,8.87
2018-05-24T09:44:40.911Z,9.40
2018-05-24T09:47:07.181Z,8.80
2018-05-24T09:49:33.431Z,8.97
2018-05-24T09:51:59.678Z,9.97
2018-05-24T09:54:25.926Z,9.10
2018-05-24T09:56:52.201Z,9.23
2018-05-24T09:59:18.436Z,9.90
2018-05-24T10:01:44.771Z,20.50
2018-05-24T10:04:11.003Z,10.70
2018-05-24T10:06:37.311Z,10.87
2018-05-24T10:09:03.623Z,10.50
2018-05-24T10:11:29.858Z,9.00
2018-05-24T10:13:56.150Z,10.00
2018-05-24T10:16:22.407Z,9.35
2018-05-24T10:18:48.638Z,9.93
2018-05-24T10:21:14.870Z,8.50
2018-05-24T10:23:41.127Z,9.57
2018-05-24T10:26:07.355Z,8.85
2018-05-24T10:28:33.614Z,8.75
2018-05-24T10:30:59.903Z,8.35
2018-05-24T10:33:26.138Z,8.50
2018-05-24T10:35:52.422Z,9.27
2018-05-24T10:38:18.679Z,9.00
2018-05-24T10:40:44.918Z,9.23
2018-05-24T10:43:11.161Z,9.02
2018-05-24T10:45:37.416Z,9.98
2018-05-24T10:48:03.642Z,10.35
2018-05-24T10:50:29.889Z,9.95
2018-05-24T10:52:56.133Z,9.27
2018-05-24T10:55:22.371Z,10.05
2018-05-24T10:57:48.643Z,9.20
2018-05-24T11:00:14.895Z,8.93
2018-05-24T11:02:41.174Z,9.15
2018-05-24T11:05:07.427Z,8.30
2018-05-24T11:07:33.670Z,9.10
2018-05-24T11:09:59.933Z,8.45
2018-05-24T11:12:26.167Z,8.43
2018-05-24T11:14:52.451Z,8.25
2018-05-24T11:17:18.707Z,8.25
2018-05-24T11:19:44.983Z,8.48
2018-05-24T11:22:11.231Z,7.93
2018-05-24T11:24:37.519Z,7.55
2018-05-24T11:27:03.776Z,8.93
2018-05-24T11:29:30.002Z,8.15
2018-05-24T11:31:56.286Z,8.80
2018-05-24T11:34:22.523Z,8.60
2018-05-24T11:36:48.764Z,8.27
2018-05-24T11:39:14.994Z,9.23
2018-05-24T11:41:41.258Z,8.30
2018-05-24T11:44:07.514Z,8.50
2018-05-24T11:46:33.830Z,10.57
2018-05-24T11:49:00.087Z,8.85
2018-05-24T11:51:26.326Z,10.10
2018-05-24T11:53:52.574Z,8.70
2018-05-24T11:56:18.803Z,8.80
2018-05-24T11:58:45.042Z,8.35
2018-05-24T12:01:11.338Z,8.45
2018-05-24T12:03:37.594Z,8.15
2018-05-24T12:06:03.826Z,8.25
2018-05-24T12:08:30.070Z,23.10
2018-05-24T12:10:56.338Z,11.18
2018-05-24T12:13:22.666Z,8.38
2018-05-24T12:15:48.899Z,8.50
2018-05-24T12:18:15.146Z,8.52
2018-05-24T12:20:41.390Z,7.93
2018-05-24T12:23:07.630Z,8.52
2018-05-24T12:25:33.870Z,8.25
2018-05-24T12:28:00.106Z,8.35
2018-05-24T12:30:26.403Z,8.43
2018-05-24T12:32:52.646Z,8.60
2018-05-24T12:35:18.982Z,8.27
2018-05-24T12:37:45.148Z,8.20
2018-05-24T12:40:11.516Z,7.45
2018-05-24T12:42:37.714Z,8.02
2018-05-24T12:45:04.024Z,7.82
2018-05-24T12:47:30.294Z,8.68
2018-05-24T12:49:56.518Z,8.23
2018-05-24T12:52:22.791Z,7.70
2018-05-24T12:54:49.038Z,8.13
2018-05-24T12:57:15.338Z,7.37
2018-05-24T12:59:41.577Z,8.43
2018-05-24T13:02:07.879Z,7.93
2018-05-24T13:04:34.117Z,7.72
2018-05-24T13:07:00.383Z,8.40
2018-05-24T13:09:26.662Z,7.00
2018-05-24T13:11:52.901Z,7.20
2018-05-24T13:14:19.166Z,7.05
2018-05-24T13:16:45.394Z,7.10
2018-05-24T13:19:11.638Z,7.12
2018-05-24T13:21:37.897Z,6.97
2018-05-24T13:24:04.163Z,8.00
2018-05-24T13:26:30.423Z,7.35
2018-05-24T13:28:56.677Z,6.65
2018-05-24T13:31:22.915Z,5.87
2018-05-24T13:33:49.170Z,6.72
2018-05-24T13:36:15.418Z,6.80
2018-05-24T13:38:41.698Z,7.15
2018-05-24T13:41:07.988Z,6.87
2018-05-24T13:43:34.288Z,6.78
2018-05-24T13:46:00.563Z,6.53
2018-05-24T13:48:26.799Z,6.28
2018-05-24T13:50:53.102Z,7.68
2018-05-24T13:53:19.347Z,6.32
2018-05-24T13:55:45.575Z,6.62
2018-05-24T13:58:11.842Z,6.57
2018-05-24T14:00:38.108Z,6.55
2018-05-24T14:03:04.379Z,6.20
2018-05-24T14:05:30.655Z,6.15
2018-05-24T14:07:56.926Z,6.70
2018-05-24T14:10:23.194Z,6.07
2018-05-24T14:12:49.454Z,6.10
2018-05-24T14:15:15.710Z,6.20
2018-05-24T14:17:41.930Z,6.12
2018-05-24T14:20:08.266Z,5.97
2018-05-24T14:22:34.494Z,6.13
2018-05-24T14:25:00.756Z,5.93
2018-05-24T14:27:26.998Z,6.50
2018-05-24T14:29:53.246Z,6.90
2018-05-24T14:32:19.481Z,6.10
2018-05-24T14:34:45.747Z,5.93
2018-05-24T14:37:11.996Z,6.83
2018-05-24T14:39:38.255Z,5.93
2018-05-24T14:42:04.542Z,5.87
2018-05-24T14:44:30.773Z,6.67
2018-05-24T14:46:57.026Z,6.20
2018-05-24T14:49:23.282Z,6.10
2018-05-24T14:51:49.553Z,6.17
2018-05-24T14:54:15.810Z,6.07
2018-05-24T14:56:42.046Z,5.97
2018-05-24T14:59:08.298Z,6.23
2018-05-24T15:01:34.566Z,5.03
2018-05-24T15:04:00.845Z,6.03
2018-05-24T15:06:27.066Z,6.10
2018-05-24T15:08:53.327Z,6.00
2018-05-24T15:11:19.582Z,5.67
2018-05-24T15:13:48.841Z,5.57
2018-05-24T15:16:15.064Z,5.70
2018-05-24T15:18:41.288Z,5.40
2018-05-24T15:21:07.563Z,5.50
2018-05-24T15:23:33.791Z,5.97
2018-05-24T15:26:00.085Z,5.63
2018-05-24T15:28:26.303Z,5.37
2018-05-24T15:30:52.619Z,6.00
2018-05-24T15:33:18.862Z,5.70
2018-05-24T15:35:45.159Z,6.23
2018-05-24T15:38:11.420Z,5.43
2018-05-24T15:40:37.775Z,6.00
2018-05-24T15:43:04.031Z,5.83
2018-05-24T15:45:30.263Z,5.70
2018-05-24T15:47:56.566Z,6.23
2018-05-24T15:50:22.828Z,5.40
2018-05-24T15:52:49.104Z,5.73
2018-05-24T15:55:15.344Z,6.60
2018-05-24T15:57:41.703Z,5.87
2018-05-24T16:00:07.999Z,6.63
2018-05-24T16:02:34.261Z,5.47
2018-05-24T16:05:00.522Z,6.17
2018-05-24T16:07:26.747Z,5.57
2018-05-24T16:09:52.999Z,5.80
2018-05-24T16:12:19.225Z,5.77
2018-05-24T16:14:45.502Z,5.83
2018-05-24T16:17:11.729Z,5.97
2018-05-24T16:19:38.003Z,6.57
2018-05-24T16:22:04.248Z,5.67
2018-05-24T16:24:30.540Z,5.87
2018-05-24T16:26:56.770Z,8.53
2018-05-24T16:29:23.007Z,16.53
2018-05-24T16:31:49.287Z,7.37
2018-05-24T16:34:15.513Z,7.63
2018-05-24T16:36:41.793Z,7.10
2018-05-24T16:39:08.046Z,8.17
2018-05-24T16:41:34.304Z,8.17
2018-05-24T16:44:00.554Z,7.70
2018-05-24T16:46:26.814Z,5.67
2018-05-24T16:48:53.051Z,5.97
2018-05-24T16:51:19.322Z,6.30
2018-05-24T16:53:45.574Z,6.03
2018-05-24T16:56:11.814Z,6.87
2018-05-24T16:58:38.087Z,6.67
2018-05-24T17:01:04.331Z,5.57
2018-05-24T17:03:30.612Z,6.57
2018-05-24T17:05:56.855Z,6.10
2018-05-24T17:08:23.117Z,6.33
2018-05-24T17:10:49.354Z,6.70
2018-05-24T17:13:15.625Z,6.10
2018-05-24T17:15:41.862Z,5.87
2018-05-24T17:18:08.127Z,6.03
2018-05-24T17:20:34.366Z,6.17
2018-05-24T17:23:00.609Z,6.77
2018-05-24T17:25:26.874Z,6.27
2018-05-24T17:27:53.123Z,7.80
2018-05-24T17:30:19.387Z,8.27
2018-05-24T17:32:45.647Z,6.20
2018-05-24T17:35:11.903Z,6.33
2018-05-24T17:37:38.173Z,6.77
2018-05-24T17:40:04.412Z,5.90
2018-05-24T17:42:30.707Z,5.73
2018-05-24T17:44:56.999Z,5.33
2018-05-24T17:47:23.426Z,5.20
2018-05-24T17:49:51.082Z,5.90
2018-05-24T17:52:19.649Z,5.73
2018-05-24T17:54:46.585Z,7.13
2018-05-24T17:57:12.960Z,6.03
2018-05-24T17:59:39.467Z,5.23
2018-05-24T18:02:05.827Z,5.80
2018-05-24T18:04:32.123Z,5.47
2018-05-24T18:06:58.382Z,5.67
2018-05-24T18:09:24.670Z,5.60
2018-05-24T18:11:50.934Z,6.10
2018-05-24T18:14:17.203Z,5.67
2018-05-24T18:16:43.453Z,6.30
2018-05-24T18:19:09.734Z,6.80
2018-05-24T18:21:35.982Z,9.37
2018-05-24T18:24:02.227Z,10.23
2018-05-24T18:26:28.502Z,8.80
2018-05-24T18:28:54.760Z,8.57
2018-05-24T18:31:21.018Z,8.97
2018-05-24T18:33:47.302Z,8.03
2018-05-24T18:36:13.646Z,7.83
2018-05-24T18:38:39.846Z,6.87
2018-05-24T18:41:06.142Z,6.23
2018-05-24T18:43:32.384Z,6.50
2018-05-24T18:45:58.662Z,6.07
2018-05-24T18:48:24.930Z,5.80
2018-05-24T18:50:51.934Z,28.93
2018-05-24T18:53:18.211Z,11.57
2018-05-24T18:55:44.467Z,5.37
2018-05-24T18:58:10.754Z,4.97
2018-05-24T19:00:37.042Z,4.80
2018-05-24T19:03:03.287Z,4.37
2018-05-24T19:05:29.531Z,4.83
2018-05-24T19:07:55.819Z,11.37
2018-05-24T19:10:22.068Z,5.53
2018-05-24T19:12:48.322Z,8.80
2018-05-24T19:15:14.921Z,5.20
2018-05-24T19:17:41.562Z,4.27
2018-05-24T19:20:07.838Z,4.03
2018-05-24T19:22:34.058Z,4.03
2018-05-24T19:25:00.752Z,2.87
2018-05-24T19:27:27.361Z,2.87
2018-05-24T19:29:53.735Z,3.07
2018-05-24T19:32:20.177Z,3.00
2018-05-24T19:34:46.528Z,2.60
2018-05-24T19:37:12.988Z,2.53
2018-05-24T19:39:39.367Z,3.20
2018-05-24T19:42:05.667Z,2.80
2018-05-24T19:44:31.990Z,3.00
2018-05-24T19:46:58.287Z,2.50
2018-05-24T19:49:24.529Z,19.23
2018-05-24T19:51:50.792Z,20.50
2018-05-24T19:54:17.058Z,3.30
2018-05-24T19:56:43.296Z,2.23
2018-05-24T19:59:09.794Z,2.70
2018-05-24T20:01:36.028Z,2.00
2018-05-24T20:04:02.334Z,2.37
2018-05-24T20:06:28.568Z,2.53
2018-05-24T20:08:54.822Z,2.20
2018-05-24T20:11:21.098Z,2.63
2018-05-24T20:13:47.441Z,2.23
2018-05-24T20:18:00.578Z,3.57
2018-05-24T20:20:26.838Z,3.07
2018-05-24T20:22:53.138Z,2.50
2018-05-24T20:25:19.955Z,3.00
2018-05-24T20:27:46.361Z,2.60
2018-05-24T20:30:12.675Z,2.53
2018-05-24T20:32:39.013Z,2.97
2018-05-24T20:35:05.235Z,2.80
2018-05-24T20:37:31.494Z,3.00
2018-05-24T20:39:57.743Z,2.67
2018-05-24T20:42:24.147Z,2.90
2018-05-24T20:44:50.435Z,2.57
2018-05-24T20:47:16.727Z,2.80
2018-05-24T20:49:42.974Z,2.67
2018-05-24T20:52:09.220Z,2.67
2018-05-24T20:54:35.489Z,2.50
2018-05-24T20:57:01.733Z,2.63
2018-05-24T20:59:28.023Z,2.57
2018-05-24T21:01:54.330Z,2.47
2018-05-24T21:04:20.600Z,2.93
2018-05-24T21:06:46.905Z,2.10
2018-05-24T21:09:13.159Z,2.53
2018-05-24T21:11:39.610Z,2.63
2018-05-24T21:14:05.887Z,2.73
2018-05-24T21:16:32.462Z,3.03
2018-05-24T21:18:58.744Z,2.90
2018-05-24T21:21:25.398Z,2.30
2018-05-24T21:23:51.707Z,2.97
2018-05-24T21:26:17.987Z,2.83
2018-05-24T21:28:44.479Z,2.67
2018-05-24T21:31:10.754Z,3.30
2018-05-24T21:33:37.241Z,3.27
2018-05-24T21:36:03.519Z,2.70
2018-05-24T21:38:29.815Z,3.10
2018-05-24T21:40:56.304Z,2.80
2018-05-24T21:43:22.603Z,2.97
2018-05-24T21:45:49.006Z,3.10
2018-05-24T21:48:15.362Z,3.23
2018-05-24T21:50:41.654Z,3.30
2018-05-24T21:53:08.235Z,2.70
2018-05-24T21:55:34.553Z,3.00
2018-05-24T21:58:00.865Z,3.40
2018-05-24T22:00:27.313Z,3.60
2018-05-24T22:02:53.613Z,3.50
2018-05-24T22:05:20.298Z,3.30
2018-05-24T22:07:46.599Z,3.33
2018-05-24T22:10:13.041Z,3.50
2018-05-24T22:12:39.469Z,3.60
2018-05-24T22:15:05.779Z,3.40
2018-05-24T22:17:32.437Z,3.97
2018-05-24T22:19:58.706Z,3.30
2018-05-24T22:22:25.125Z,3.80
2018-05-24T22:24:51.565Z,3.60
2018-05-24T22:27:17.898Z,3.50
2018-05-24T22:29:44.463Z,4.07
2018-05-24T22:32:10.747Z,4.10
2018-05-24T22:34:37.084Z,4.30
2018-05-24T22:37:03.439Z,4.13
2018-05-24T22:39:29.715Z,4.03
2018-05-24T22:41:56.289Z,3.93
2018-05-24T22:44:22.602Z,4.00
2018-05-24T22:46:48.918Z,4.00
2018-05-24T22:49:15.378Z,4.13
2018-05-24T22:51:41.622Z,3.93
2018-05-24T22:54:08.226Z,4.20
2018-05-24T22:56:34.522Z,4.23
2018-05-24T22:59:00.772Z,4.30
2018-05-24T23:01:27.150Z,4.43
2018-05-24T23:03:53.375Z,4.27
2018-05-24T23:06:19.682Z,4.47
2018-05-24T23:08:45.913Z,4.27
2018-05-24T23:11:12.197Z,4.20
2018-05-24T23:13:38.416Z,4.30
2018-05-24T23:16:04.698Z,4.40
2018-05-24T23:18:31.127Z,4.40
2018-05-24T23:20:57.458Z,4.50
2018-05-24T23:23:23.884Z,4.83
2018-05-24T23:25:50.118Z,4.87
2018-05-24T23:28:16.494Z,4.23
2018-05-24T23:30:42.798Z,4.40
2018-05-24T23:33:09.054Z,4.57
2018-05-24T23:35:35.459Z,5.40
2018-05-24T23:38:01.706Z,4.23
2018-05-24T23:40:27.982Z,4.23
2018-05-24T23:42:54.268Z,5.43
2018-05-24T23:45:20.522Z,4.27
2018-05-24T23:47:46.763Z,4.53
2018-05-24T23:50:13.062Z,4.83
2018-05-24T23:52:39.311Z,4.40
2018-05-24T23:55:05.646Z,4.83
2018-05-24T23:57:31.956Z,4.80
2018-05-24T23:59:58.287Z,4.67
